createdAt,value
2022-12-01T00:00:28.972Z,97676.00
2022-12-01T00:05:29.823Z,97674.00
2022-12-01T00:10:32.679Z,97677.00
2022-12-01T00:15:35.424Z,97676.00
2022-12-01T00:20:36.227Z,97674.00
2022-12-01T00:25:37.521Z,97669.00
2022-12-01T00:30:38.290Z,97668.00
2022-12-01T00:35:39.392Z,97667.00
2022-12-01T00:40:40.148Z,97668.00
2022-12-01T00:45:42.322Z,97681.00
2022-12-01T00:50:43.775Z,97678.00
2022-12-01T00:55:44.513Z,97678.00
2022-12-01T01:00:45.254Z,97675.00
2022-12-01T01:05:46.243Z,97671.00
2022-12-01T01:10:47.704Z,97676.00
2022-12-01T01:16:07.227Z,97678.00
2022-12-01T01:21:12.232Z,97676.00
2022-12-01T01:26:19.972Z,97690.00
2022-12-01T01:31:23.362Z,97689.00
2022-12-01T01:36:25.035Z,97687.00
2022-12-01T01:41:26.072Z,97688.00
2022-12-01T01:46:32.287Z,97686.00
2022-12-01T01:51:38.990Z,97689.00
2022-12-01T01:56:39.812Z,97694.00
2022-12-01T02:01:40.633Z,97693.00
2022-12-01T02:06:41.481Z,97696.00
2022-12-01T02:15:37.055Z,97697.00
2022-12-01T02:23:39.800Z,97696.00
2022-12-01T02:30:17.489Z,97691.00
2022-12-01T02:35:34.988Z,97692.00
2022-12-01T02:40:52.295Z,97693.00
2022-12-01T02:46:05.182Z,97688.00
2022-12-01T02:51:11.503Z,97683.00
2022-12-01T02:56:15.145Z,97684.00
2022-12-01T03:03:24.418Z,97687.00
2022-12-01T03:08:45.334Z,97699.00
2022-12-01T03:15:35.020Z,97699.00
2022-12-01T03:23:58.684Z,97699.00
2022-12-01T03:29:42.469Z,97699.00
2022-12-01T03:35:08.262Z,97698.00
2022-12-01T03:40:13.655Z,97698.00
2022-12-01T03:45:20.652Z,97701.00
2022-12-01T03:50:26.061Z,97694.00
2022-12-01T03:55:30.446Z,97693.00
2022-12-01T04:00:32.393Z,97692.00
2022-12-01T04:05:34.610Z,97694.00
2022-12-01T04:10:35.305Z,97705.00
2022-12-01T04:15:36.082Z,97703.00
2022-12-01T04:20:36.807Z,97706.00
2022-12-01T04:25:37.551Z,97715.00
2022-12-01T04:30:38.333Z,97709.00
2022-12-01T04:35:39.310Z,97710.00
2022-12-01T04:40:40.036Z,97714.00
2022-12-01T04:45:41.081Z,97711.00
2022-12-01T04:50:41.807Z,97715.00
2022-12-01T04:55:42.686Z,97715.00
2022-12-01T05:00:43.663Z,97722.00
2022-12-01T05:05:44.489Z,97725.00
2022-12-01T05:10:45.264Z,97724.00
2022-12-01T05:15:46.048Z,97726.00
2022-12-01T05:20:59.015Z,97726.00
2022-12-01T05:26:01.187Z,97729.00
2022-12-01T05:31:02.493Z,97723.00
2022-12-01T05:36:03.965Z,97727.00
2022-12-01T05:41:04.841Z,97726.00
2022-12-01T05:46:05.717Z,97729.00
2022-12-01T05:51:10.808Z,97724.00
2022-12-01T05:56:11.629Z,97719.00
2022-12-01T06:01:12.588Z,97722.00
2022-12-01T06:06:13.436Z,97723.00
2022-12-01T06:11:14.234Z,97723.00
2022-12-01T06:16:15.071Z,97722.00
2022-12-01T06:21:16.156Z,97725.00
2022-12-01T06:26:16.929Z,97721.00
2022-12-01T06:31:17.875Z,97728.00
2022-12-01T06:36:18.737Z,97734.00
2022-12-01T06:41:19.533Z,97732.00
2022-12-01T06:46:20.291Z,97732.00
2022-12-01T06:51:21.833Z,97746.00
2022-12-01T06:56:22.953Z,97750.00
2022-12-01T07:01:24.497Z,97753.00
2022-12-01T07:06:25.608Z,97754.00
2022-12-01T07:11:26.372Z,97758.00
2022-12-01T07:16:27.208Z,97764.00
2022-12-01T07:21:28.042Z,97765.00
2022-12-01T07:26:28.759Z,97771.00
2022-12-01T07:31:29.788Z,97771.00
2022-12-01T07:36:30.966Z,97770.00
2022-12-01T07:41:31.754Z,97778.00
2022-12-01T07:46:32.565Z,97778.00
2022-12-01T07:51:34.326Z,97778.00
2022-12-01T07:56:35.080Z,97787.00
2022-12-01T08:01:40.276Z,97795.00
2022-12-01T08:06:43.859Z,97800.00
2022-12-01T08:11:44.640Z,97798.00
2022-12-01T08:16:47.977Z,97807.00
2022-12-01T08:21:48.797Z,97809.00
2022-12-01T08:26:49.523Z,97809.00
2022-12-01T08:31:50.783Z,97811.00
2022-12-01T08:36:51.506Z,97820.00
2022-12-01T08:41:52.286Z,97817.00
2022-12-01T08:46:53.749Z,97825.00
2022-12-01T08:51:55.555Z,97827.00
2022-12-01T08:56:56.405Z,97829.00
2022-12-01T09:01:58.994Z,97830.00
2022-12-01T09:07:01.290Z,97827.00
2022-12-01T09:12:03.200Z,97826.00
2022-12-01T09:17:05.506Z,97833.00
2022-12-01T09:22:06.251Z,97828.00
2022-12-01T09:27:08.513Z,97829.00
2022-12-01T09:32:09.389Z,97835.00
2022-12-01T09:37:10.181Z,97836.00
2022-12-01T09:42:15.305Z,97841.00
2022-12-01T09:47:29.878Z,97838.00
2022-12-01T09:52:40.956Z,97837.00
2022-12-01T09:57:42.845Z,97833.00
2022-12-01T10:03:39.878Z,97829.00
2022-12-01T10:08:46.968Z,97827.00
2022-12-01T10:13:47.809Z,97821.00
2022-12-01T10:22:44.594Z,97813.00
2022-12-01T10:28:52.363Z,97808.00
2022-12-01T10:34:36.244Z,97806.00
2022-12-01T10:39:40.949Z,97812.00
2022-12-01T10:44:43.631Z,97803.00
2022-12-01T10:49:44.455Z,97797.00
2022-12-01T10:54:45.414Z,97800.00
2022-12-01T10:59:54.803Z,97797.00
2022-12-01T11:05:05.454Z,97792.00
2022-12-01T11:10:20.039Z,97787.00
2022-12-01T11:15:31.644Z,97778.00
2022-12-01T11:20:37.914Z,97780.00
2022-12-01T11:25:38.701Z,97774.00
2022-12-01T11:30:39.495Z,97771.00
2022-12-01T11:35:47.216Z,97766.00
2022-12-01T11:40:50.962Z,97766.00
2022-12-01T11:45:53.641Z,97760.00
2022-12-01T11:51:31.589Z,97766.00
2022-12-01T11:56:32.548Z,97766.00
2022-12-01T12:03:49.788Z,97755.00
2022-12-01T12:09:03.124Z,97756.00
2022-12-01T12:16:57.925Z,97754.00
2022-12-01T12:22:29.186Z,97749.00
2022-12-01T12:27:51.774Z,97743.00
2022-12-01T12:33:29.867Z,97741.00
2022-12-01T12:39:02.972Z,97735.00
2022-12-01T12:44:48.146Z,97723.00
2022-12-01T12:50:44.208Z,97725.00
2022-12-01T12:55:49.299Z,97720.00
2022-12-01T13:00:57.404Z,97725.00
2022-12-01T13:06:10.172Z,97724.00
2022-12-01T13:11:34.809Z,97728.00
2022-12-01T13:16:42.570Z,97728.00
2022-12-01T13:21:46.090Z,97726.00
2022-12-01T13:26:55.864Z,97719.00
2022-12-01T13:31:56.600Z,97715.00
2022-12-01T13:36:57.660Z,97719.00
2022-12-01T13:42:19.067Z,97712.00
2022-12-01T13:51:02.962Z,97706.00
2022-12-01T13:56:39.265Z,97702.00
2022-12-01T14:01:44.537Z,97712.00
2022-12-01T14:06:48.396Z,97709.00
2022-12-01T14:15:41.460Z,97707.00
2022-12-01T14:20:45.088Z,97704.00
2022-12-01T14:26:10.882Z,97705.00
2022-12-01T14:31:12.797Z,97710.00
2022-12-01T14:36:34.990Z,97699.00
2022-12-01T14:41:44.841Z,97710.00
2022-12-01T14:47:01.588Z,97706.00
2022-12-01T14:52:23.093Z,97704.00
2022-12-01T14:57:31.102Z,97705.00
2022-12-01T15:02:32.389Z,97707.00
2022-12-01T15:07:42.791Z,97704.00
2022-12-01T15:12:44.183Z,97708.00
2022-12-01T15:17:45.891Z,97703.00
2022-12-01T15:22:46.789Z,97700.00
2022-12-01T15:28:01.846Z,97702.00
2022-12-01T15:33:04.416Z,97702.00
2022-12-01T15:38:11.130Z,97691.00
2022-12-01T15:43:25.880Z,97696.00
2022-12-01T15:48:33.764Z,97697.00
2022-12-01T15:53:44.689Z,97701.00
2022-12-01T15:58:46.991Z,97706.00
2022-12-01T16:04:07.793Z,97708.00
2022-12-01T16:11:14.585Z,97708.00
2022-12-01T16:19:47.557Z,97717.00
2022-12-01T16:24:54.240Z,97710.00
2022-12-01T16:30:05.605Z,97705.00
2022-12-01T16:35:30.667Z,97712.00
2022-12-01T16:40:32.220Z,97722.00
2022-12-01T16:45:33.004Z,97711.00
2022-12-01T16:50:33.713Z,97716.00
2022-12-01T16:55:41.277Z,97719.00
2022-12-01T17:00:42.033Z,97726.00
2022-12-01T17:05:44.261Z,97722.00
2022-12-01T17:10:48.661Z,97731.00
2022-12-01T17:15:51.990Z,97723.00
2022-12-01T17:21:01.011Z,97723.00
2022-12-01T17:26:06.668Z,97720.00
2022-12-01T17:31:08.530Z,97727.00
2022-12-01T17:36:11.924Z,97713.00
2022-12-01T17:41:15.251Z,97716.00
2022-12-01T17:46:16.220Z,97706.00
2022-12-01T17:51:17.243Z,97715.00
2022-12-01T17:56:18.048Z,97715.00
2022-12-01T18:01:24.113Z,97714.00
2022-12-01T18:06:27.836Z,97717.00
2022-12-01T18:11:28.627Z,97714.00
2022-12-01T18:16:31.074Z,97724.00
2022-12-01T18:21:31.917Z,97729.00
2022-12-01T18:26:33.557Z,97731.00
2022-12-01T18:31:34.514Z,97716.00
2022-12-01T18:36:39.352Z,97722.00
2022-12-01T18:41:40.208Z,97728.00
2022-12-01T18:46:41.060Z,97728.00
2022-12-01T18:51:41.904Z,97730.00
2022-12-01T18:56:43.203Z,97732.00
2022-12-01T19:01:46.093Z,97727.00
2022-12-01T19:06:47.101Z,97725.00
2022-12-01T19:11:47.924Z,97719.00
2022-12-01T19:16:48.705Z,97711.00
2022-12-01T19:21:50.370Z,97709.00
2022-12-01T19:26:51.460Z,97708.00
2022-12-01T19:31:52.971Z,97703.00
2022-12-01T19:36:55.966Z,97703.00
2022-12-01T19:41:56.965Z,97703.00
2022-12-01T19:46:57.783Z,97699.00
2022-12-01T19:51:58.521Z,97709.00
2022-12-01T19:56:59.339Z,97702.00
2022-12-01T20:02:00.135Z,97699.00
2022-12-01T20:07:01.346Z,97701.00
2022-12-01T20:12:02.619Z,97699.00
2022-12-01T20:17:03.738Z,97698.00
2022-12-01T20:22:04.650Z,97691.00
2022-12-01T20:27:05.509Z,97690.00
2022-12-01T20:32:06.619Z,97692.00
2022-12-01T20:37:07.782Z,97681.00
2022-12-01T20:42:09.146Z,97684.00
2022-12-01T20:47:09.917Z,97681.00
2022-12-01T20:52:10.692Z,97676.00
2022-12-01T20:57:11.625Z,97675.00
2022-12-01T21:02:12.432Z,97673.00
2022-12-01T21:07:13.204Z,97669.00
2022-12-01T21:12:34.313Z,97661.00
2022-12-01T21:17:45.536Z,97670.00
2022-12-01T21:22:48.049Z,97671.00
2022-12-01T21:27:49.751Z,97672.00
2022-12-01T21:32:51.065Z,97675.00
2022-12-01T21:38:01.334Z,97675.00
2022-12-01T21:43:23.522Z,97670.00
2022-12-01T21:48:35.085Z,97669.00
2022-12-01T21:53:37.581Z,97681.00
2022-12-01T21:58:38.417Z,97679.00
2022-12-01T22:03:43.996Z,97679.00
2022-12-01T22:08:48.037Z,97663.00
2022-12-01T22:14:35.668Z,97663.00
2022-12-01T22:19:41.553Z,97655.00
2022-12-01T22:24:45.657Z,97653.00
2022-12-01T22:29:50.427Z,97656.00
2022-12-01T22:35:10.718Z,97651.00
2022-12-01T22:41:01.232Z,97645.00
2022-12-01T22:46:23.356Z,97651.00
2022-12-01T22:51:41.167Z,97643.00
2022-12-01T22:56:50.050Z,97640.00
2022-12-01T23:01:53.894Z,97641.00
2022-12-01T23:07:15.164Z,97643.00
2022-12-01T23:12:34.470Z,97645.00
2022-12-01T23:17:38.121Z,97639.00
2022-12-01T23:22:39.477Z,97636.00
2022-12-01T23:27:40.644Z,97638.00
2022-12-01T23:32:42.200Z,97626.00
2022-12-01T23:37:46.652Z,97630.00
2022-12-01T23:42:48.242Z,97613.00
2022-12-01T23:47:50.582Z,97606.00
2022-12-01T23:52:52.093Z,97605.00
2022-12-01T23:57:54.467Z,97591.00
